sensor_id;sensor_type;location;lat;lon;timestamp;temperature;humidity
30206;DHT22;17010;51.306;3.150;2023-07-29T00:00:43;17.20;99.90
30206;DHT22;17010;51.306;3.150;2023-07-29T00:03:11;17.10;99.90
30206;DHT22;17010;51.306;3.150;2023-07-29T00:05:37;17.10;99.90
30206;DHT22;17010;51.306;3.150;2023-07-29T00:08:04;17.10;99.90
30206;DHT22;17010;51.306;3.150;2023-07-29T00:10:32;17.10;99.90
30206;DHT22;17010;51.306;3.150;2023-07-29T00:12:58;17.20;99.90
30206;DHT22;17010;51.306;3.150;2023-07-29T00:15:25;17.20;99.90
30206;DHT22;17010;51.306;3.150;2023-07-29T00:17:51;17.20;99.90
30206;DHT22;17010;51.306;3.150;2023-07-29T00:20:17;17.20;99.90
30206;DHT22;17010;51.306;3.150;2023-07-29T00:22:44;17.20;99.90
30206;DHT22;17010;51.306;3.150;2023-07-29T00:25:11;17.10;99.90
30206;DHT22;17010;51.306;3.150;2023-07-29T00:27:37;17.10;99.90
30206;DHT22;17010;51.306;3.150;2023-07-29T00:30:04;17.10;99.90
30206;DHT22;17010;51.306;3.150;2023-07-29T00:32:30;17.10;99.90
30206;DHT22;17010;51.306;3.150;2023-07-29T00:34:57;17.10;99.90
30206;DHT22;17010;51.306;3.150;2023-07-29T00:37:23;17.00;99.90
30206;DHT22;17010;51.306;3.150;2023-07-29T00:39:49;17.00;99.90
30206;DHT22;17010;51.306;3.150;2023-07-29T00:42:16;16.90;99.90
30206;DHT22;17010;51.306;3.150;2023-07-29T00:44:42;17.00;99.90
30206;DHT22;17010;51.306;3.150;2023-07-29T00:47:08;17.00;99.90
30206;DHT22;17010;51.306;3.150;2023-07-29T00:49:34;16.90;99.90
30206;DHT22;17010;51.306;3.150;2023-07-29T00:52:00;16.90;99.90
30206;DHT22;17010;51.306;3.150;2023-07-29T00:54:28;16.90;99.90
30206;DHT22;17010;51.306;3.150;2023-07-29T00:56:54;16.90;99.90
30206;DHT22;17010;51.306;3.150;2023-07-29T00:59:21;16.90;99.90
30206;DHT22;17010;51.306;3.150;2023-07-29T01:01:49;16.90;99.90
30206;DHT22;17010;51.306;3.150;2023-07-29T01:04:15;16.80;99.90
30206;DHT22;17010;51.306;3.150;2023-07-29T01:09:16;16.80;99.90
30206;DHT22;17010;51.306;3.150;2023-07-29T01:11:58;16.90;99.90
30206;DHT22;17010;51.306;3.150;2023-07-29T01:16:54;16.90;99.90
30206;DHT22;17010;51.306;3.150;2023-07-29T01:22:16;16.90;99.90
30206;DHT22;17010;51.306;3.150;2023-07-29T01:24:43;16.90;99.90
30206;DHT22;17010;51.306;3.150;2023-07-29T01:27:09;16.90;99.90
30206;DHT22;17010;51.306;3.150;2023-07-29T01:29:36;16.90;99.90
30206;DHT22;17010;51.306;3.150;2023-07-29T01:32:06;16.90;99.90
30206;DHT22;17010;51.306;3.150;2023-07-29T01:37:28;16.90;99.90
30206;DHT22;17010;51.306;3.150;2023-07-29T01:39:57;16.90;99.90
30206;DHT22;17010;51.306;3.150;2023-07-29T01:42:25;16.90;99.90
30206;DHT22;17010;51.306;3.150;2023-07-29T01:44:52;16.90;99.90
30206;DHT22;17010;51.306;3.150;2023-07-29T01:47:18;16.90;99.90
30206;DHT22;17010;51.306;3.150;2023-07-29T01:49:45;16.90;99.90
30206;DHT22;17010;51.306;3.150;2023-07-29T01:52:11;16.90;99.90
30206;DHT22;17010;51.306;3.150;2023-07-29T01:54:37;16.90;99.90
30206;DHT22;17010;51.306;3.150;2023-07-29T01:57:03;16.90;99.90
30206;DHT22;17010;51.306;3.150;2023-07-29T01:59:29;16.90;99.90
30206;DHT22;17010;51.306;3.150;2023-07-29T02:01:56;16.90;99.90
30206;DHT22;17010;51.306;3.150;2023-07-29T02:04:22;16.80;99.90
30206;DHT22;17010;51.306;3.150;2023-07-29T02:06:48;16.90;99.90
30206;DHT22;17010;51.306;3.150;2023-07-29T02:09:14;16.90;99.90
30206;DHT22;17010;51.306;3.150;2023-07-29T02:11:40;16.80;99.90
30206;DHT22;17010;51.306;3.150;2023-07-29T02:14:08;16.80;99.90
30206;DHT22;17010;51.306;3.150;2023-07-29T02:16:36;16.80;99.90
30206;DHT22;17010;51.306;3.150;2023-07-29T02:19:03;16.80;99.90
30206;DHT22;17010;51.306;3.150;2023-07-29T02:21:30;16.80;99.90
30206;DHT22;17010;51.306;3.150;2023-07-29T02:23:56;16.80;99.90
30206;DHT22;17010;51.306;3.150;2023-07-29T02:26:23;16.70;99.90
30206;DHT22;17010;51.306;3.150;2023-07-29T02:28:49;16.70;99.90
30206;DHT22;17010;51.306;3.150;2023-07-29T02:31:23;16.70;99.90
30206;DHT22;17010;51.306;3.150;2023-07-29T02:33:50;16.80;99.90
30206;DHT22;17010;51.306;3.150;2023-07-29T02:36:16;16.80;99.90
30206;DHT22;17010;51.306;3.150;2023-07-29T02:38:43;16.80;99.90
30206;DHT22;17010;51.306;3.150;2023-07-29T02:41:10;16.80;99.90
30206;DHT22;17010;51.306;3.150;2023-07-29T02:43:38;16.80;99.90
30206;DHT22;17010;51.306;3.150;2023-07-29T02:46:04;16.80;99.90
30206;DHT22;17010;51.306;3.150;2023-07-29T02:48:31;16.80;99.90
30206;DHT22;17010;51.306;3.150;2023-07-29T02:50:57;16.80;99.90
30206;DHT22;17010;51.306;3.150;2023-07-29T02:53:25;16.80;99.90
30206;DHT22;17010;51.306;3.150;2023-07-29T02:55:51;16.80;99.90
30206;DHT22;17010;51.306;3.150;2023-07-29T02:58:18;16.80;99.90
30206;DHT22;17010;51.306;3.150;2023-07-29T03:00:44;16.80;99.90
30206;DHT22;17010;51.306;3.150;2023-07-29T03:03:10;16.80;99.90
30206;DHT22;17010;51.306;3.150;2023-07-29T03:05:36;16.80;99.90
30206;DHT22;17010;51.306;3.150;2023-07-29T03:08:03;16.80;99.90
30206;DHT22;17010;51.306;3.150;2023-07-29T03:10:29;16.80;99.90
30206;DHT22;17010;51.306;3.150;2023-07-29T03:12:56;16.80;99.90
30206;DHT22;17010;51.306;3.150;2023-07-29T03:15:25;16.80;99.90
30206;DHT22;17010;51.306;3.150;2023-07-29T03:17:52;16.80;99.90
30206;DHT22;17010;51.306;3.150;2023-07-29T03:20:19;16.80;99.90
30206;DHT22;17010;51.306;3.150;2023-07-29T03:22:46;16.80;99.90
30206;DHT22;17010;51.306;3.150;2023-07-29T03:25:13;16.80;99.90
30206;DHT22;17010;51.306;3.150;2023-07-29T03:27:39;16.90;99.90
30206;DHT22;17010;51.306;3.150;2023-07-29T03:30:08;16.90;99.90
30206;DHT22;17010;51.306;3.150;2023-07-29T03:32:35;16.90;99.90
30206;DHT22;17010;51.306;3.150;2023-07-29T03:35:01;16.90;99.90
30206;DHT22;17010;51.306;3.150;2023-07-29T03:37:27;16.90;99.90
30206;DHT22;17010;51.306;3.150;2023-07-29T03:39:53;17.00;99.90
30206;DHT22;17010;51.306;3.150;2023-07-29T03:42:20;17.10;99.90
30206;DHT22;17010;51.306;3.150;2023-07-29T03:44:46;17.10;99.90
30206;DHT22;17010;51.306;3.150;2023-07-29T03:47:12;17.10;99.90
30206;DHT22;17010;51.306;3.150;2023-07-29T03:49:38;17.10;99.90
30206;DHT22;17010;51.306;3.150;2023-07-29T03:52:05;17.10;99.90
30206;DHT22;17010;51.306;3.150;2023-07-29T03:54:31;17.10;99.90
30206;DHT22;17010;51.306;3.150;2023-07-29T03:56:58;17.10;99.90
30206;DHT22;17010;51.306;3.150;2023-07-29T03:59:24;17.20;99.90
30206;DHT22;17010;51.306;3.150;2023-07-29T04:01:50;17.20;99.90
30206;DHT22;17010;51.306;3.150;2023-07-29T04:04:17;17.20;99.90
30206;DHT22;17010;51.306;3.150;2023-07-29T04:06:43;17.20;99.90
30206;DHT22;17010;51.306;3.150;2023-07-29T04:09:09;17.20;99.90
30206;DHT22;17010;51.306;3.150;2023-07-29T04:11:36;17.20;99.90
30206;DHT22;17010;51.306;3.150;2023-07-29T04:14:02;17.20;99.90
30206;DHT22;17010;51.306;3.150;2023-07-29T04:16:28;17.20;99.90
30206;DHT22;17010;51.306;3.150;2023-07-29T04:18:55;17.30;99.90
30206;DHT22;17010;51.306;3.150;2023-07-29T04:21:22;17.20;99.90
30206;DHT22;17010;51.306;3.150;2023-07-29T04:23:48;17.20;99.90
30206;DHT22;17010;51.306;3.150;2023-07-29T04:26:14;17.20;99.90
30206;DHT22;17010;51.306;3.150;2023-07-29T04:28:40;17.30;99.90
30206;DHT22;17010;51.306;3.150;2023-07-29T04:31:07;17.30;99.90
30206;DHT22;17010;51.306;3.150;2023-07-29T04:33:33;17.30;99.90
30206;DHT22;17010;51.306;3.150;2023-07-29T04:35:59;17.30;99.90
30206;DHT22;17010;51.306;3.150;2023-07-29T04:38:31;17.30;99.90
30206;DHT22;17010;51.306;3.150;2023-07-29T04:40:59;17.30;99.90
30206;DHT22;17010;51.306;3.150;2023-07-29T04:43:30;17.30;99.90
30206;DHT22;17010;51.306;3.150;2023-07-29T04:45:56;17.40;99.90
30206;DHT22;17010;51.306;3.150;2023-07-29T04:48:22;17.40;99.90
30206;DHT22;17010;51.306;3.150;2023-07-29T04:50:50;17.40;99.90
30206;DHT22;17010;51.306;3.150;2023-07-29T04:53:16;17.50;99.90
30206;DHT22;17010;51.306;3.150;2023-07-29T04:55:44;17.50;99.90
30206;DHT22;17010;51.306;3.150;2023-07-29T04:58:10;17.60;99.90
30206;DHT22;17010;51.306;3.150;2023-07-29T05:00:38;17.60;99.90
30206;DHT22;17010;51.306;3.150;2023-07-29T05:03:04;17.60;99.90
30206;DHT22;17010;51.306;3.150;2023-07-29T05:05:31;17.70;99.90
30206;DHT22;17010;51.306;3.150;2023-07-29T05:07:57;17.70;99.90
30206;DHT22;17010;51.306;3.150;2023-07-29T05:10:23;17.70;99.90
30206;DHT22;17010;51.306;3.150;2023-07-29T05:12:49;17.80;99.90
30206;DHT22;17010;51.306;3.150;2023-07-29T05:15:15;17.90;99.90
30206;DHT22;17010;51.306;3.150;2023-07-29T05:17:41;18.00;99.90
30206;DHT22;17010;51.306;3.150;2023-07-29T05:20:10;18.00;99.90
30206;DHT22;17010;51.306;3.150;2023-07-29T05:22:36;18.00;99.90
30206;DHT22;17010;51.306;3.150;2023-07-29T05:25:02;18.00;99.90
30206;DHT22;17010;51.306;3.150;2023-07-29T05:27:28;18.10;99.90
30206;DHT22;17010;51.306;3.150;2023-07-29T05:29:55;18.30;99.90
30206;DHT22;17010;51.306;3.150;2023-07-29T05:32:21;18.50;99.90
30206;DHT22;17010;51.306;3.150;2023-07-29T05:34:47;18.50;99.90
30206;DHT22;17010;51.306;3.150;2023-07-29T05:37:14;18.60;99.90
30206;DHT22;17010;51.306;3.150;2023-07-29T05:39:40;18.80;99.90
30206;DHT22;17010;51.306;3.150;2023-07-29T05:42:06;18.90;99.90
30206;DHT22;17010;51.306;3.150;2023-07-29T05:44:32;18.90;99.90
30206;DHT22;17010;51.306;3.150;2023-07-29T05:46:59;19.00;99.90
30206;DHT22;17010;51.306;3.150;2023-07-29T05:49:25;19.00;99.90
30206;DHT22;17010;51.306;3.150;2023-07-29T05:51:51;19.00;99.90
30206;DHT22;17010;51.306;3.150;2023-07-29T05:54:18;19.00;99.90
30206;DHT22;17010;51.306;3.150;2023-07-29T05:56:45;19.10;99.90
30206;DHT22;17010;51.306;3.150;2023-07-29T05:59:11;19.10;99.90
30206;DHT22;17010;51.306;3.150;2023-07-29T06:01:37;19.40;99.90
30206;DHT22;17010;51.306;3.150;2023-07-29T06:04:04;19.60;99.90
30206;DHT22;17010;51.306;3.150;2023-07-29T06:06:30;19.60;99.90
30206;DHT22;17010;51.306;3.150;2023-07-29T06:08:56;19.70;99.90
30206;DHT22;17010;51.306;3.150;2023-07-29T06:11:23;19.60;99.90
30206;DHT22;17010;51.306;3.150;2023-07-29T06:13:50;19.70;99.90
30206;DHT22;17010;51.306;3.150;2023-07-29T06:16:16;19.60;99.90
30206;DHT22;17010;51.306;3.150;2023-07-29T06:18:44;19.60;99.90
30206;DHT22;17010;51.306;3.150;2023-07-29T06:21:10;19.50;99.90
30206;DHT22;17010;51.306;3.150;2023-07-29T06:23:40;19.50;99.90
30206;DHT22;17010;51.306;3.150;2023-07-29T06:26:06;19.40;99.90
30206;DHT22;17010;51.306;3.150;2023-07-29T06:28:34;19.40;99.90
30206;DHT22;17010;51.306;3.150;2023-07-29T06:31:05;19.20;99.90
30206;DHT22;17010;51.306;3.150;2023-07-29T06:41:05;19.10;99.90
30206;DHT22;17010;51.306;3.150;2023-07-29T06:43:57;19.30;99.90
30206;DHT22;17010;51.306;3.150;2023-07-29T06:46:57;19.40;99.90
30206;DHT22;17010;51.306;3.150;2023-07-29T06:50:22;19.70;99.90
30206;DHT22;17010;51.306;3.150;2023-07-29T06:52:50;19.90;99.90
30206;DHT22;17010;51.306;3.150;2023-07-29T06:55:17;20.10;99.90
30206;DHT22;17010;51.306;3.150;2023-07-29T06:57:43;20.30;99.90
30206;DHT22;17010;51.306;3.150;2023-07-29T07:00:11;20.50;99.90
30206;DHT22;17010;51.306;3.150;2023-07-29T07:02:37;20.60;99.90
30206;DHT22;17010;51.306;3.150;2023-07-29T07:05:05;20.80;99.90
30206;DHT22;17010;51.306;3.150;2023-07-29T07:07:33;20.80;99.90
30206;DHT22;17010;51.306;3.150;2023-07-29T07:10:00;20.90;99.90
30206;DHT22;17010;51.306;3.150;2023-07-29T07:12:26;20.90;99.90
30206;DHT22;17010;51.306;3.150;2023-07-29T07:14:53;21.00;99.90
30206;DHT22;17010;51.306;3.150;2023-07-29T07:17:19;21.20;99.90
30206;DHT22;17010;51.306;3.150;2023-07-29T07:19:45;21.40;99.90
30206;DHT22;17010;51.306;3.150;2023-07-29T07:22:12;21.50;99.90
30206;DHT22;17010;51.306;3.150;2023-07-29T07:24:38;21.60;99.90
30206;DHT22;17010;51.306;3.150;2023-07-29T07:27:04;21.80;99.90
30206;DHT22;17010;51.306;3.150;2023-07-29T07:29:31;22.00;99.90
30206;DHT22;17010;51.306;3.150;2023-07-29T07:31:57;22.20;99.90
30206;DHT22;17010;51.306;3.150;2023-07-29T07:34:23;22.30;99.90
30206;DHT22;17010;51.306;3.150;2023-07-29T07:36:49;22.30;99.90
30206;DHT22;17010;51.306;3.150;2023-07-29T07:39:16;22.10;99.90
30206;DHT22;17010;51.306;3.150;2023-07-29T07:41:42;21.90;99.90
30206;DHT22;17010;51.306;3.150;2023-07-29T07:44:08;21.60;99.90
30206;DHT22;17010;51.306;3.150;2023-07-29T07:46:35;21.40;99.90
30206;DHT22;17010;51.306;3.150;2023-07-29T07:49:01;21.20;99.90
30206;DHT22;17010;51.306;3.150;2023-07-29T07:51:27;21.20;99.90
30206;DHT22;17010;51.306;3.150;2023-07-29T07:53:53;21.20;99.90
30206;DHT22;17010;51.306;3.150;2023-07-29T07:56:20;21.30;99.90
30206;DHT22;17010;51.306;3.150;2023-07-29T07:58:47;21.50;99.90
30206;DHT22;17010;51.306;3.150;2023-07-29T08:01:13;21.90;99.90
30206;DHT22;17010;51.306;3.150;2023-07-29T08:03:40;22.20;99.90
30206;DHT22;17010;51.306;3.150;2023-07-29T08:06:09;22.40;99.90
30206;DHT22;17010;51.306;3.150;2023-07-29T08:08:37;22.40;99.90
30206;DHT22;17010;51.306;3.150;2023-07-29T08:11:04;22.30;99.90
30206;DHT22;17010;51.306;3.150;2023-07-29T08:13:31;22.10;99.90
30206;DHT22;17010;51.306;3.150;2023-07-29T08:15:59;21.80;99.90
30206;DHT22;17010;51.306;3.150;2023-07-29T08:18:27;21.60;99.90
30206;DHT22;17010;51.306;3.150;2023-07-29T08:20:58;21.30;99.90
30206;DHT22;17010;51.306;3.150;2023-07-29T08:23:31;21.00;99.90
30206;DHT22;17010;51.306;3.150;2023-07-29T08:26:00;20.80;99.90
30206;DHT22;17010;51.306;3.150;2023-07-29T08:28:37;20.70;99.90
30206;DHT22;17010;51.306;3.150;2023-07-29T08:31:07;20.60;99.90
30206;DHT22;17010;51.306;3.150;2023-07-29T08:33:33;20.50;99.90
30206;DHT22;17010;51.306;3.150;2023-07-29T08:36:01;20.40;99.90
30206;DHT22;17010;51.306;3.150;2023-07-29T08:38:27;20.20;99.90
30206;DHT22;17010;51.306;3.150;2023-07-29T08:43:32;19.90;99.90
30206;DHT22;17010;51.306;3.150;2023-07-29T08:45:59;19.80;99.90
30206;DHT22;17010;51.306;3.150;2023-07-29T08:48:40;19.70;99.90
30206;DHT22;17010;51.306;3.150;2023-07-29T08:51:12;19.60;99.90
30206;DHT22;17010;51.306;3.150;2023-07-29T08:53:39;19.50;99.90
30206;DHT22;17010;51.306;3.150;2023-07-29T08:56:07;19.40;99.90
30206;DHT22;17010;51.306;3.150;2023-07-29T08:58:33;19.20;99.90
30206;DHT22;17010;51.306;3.150;2023-07-29T09:01:00;19.10;99.90
30206;DHT22;17010;51.306;3.150;2023-07-29T09:03:26;18.90;99.90
30206;DHT22;17010;51.306;3.150;2023-07-29T09:05:53;18.80;99.90
30206;DHT22;17010;51.306;3.150;2023-07-29T09:08:21;18.80;99.90
30206;DHT22;17010;51.306;3.150;2023-07-29T09:10:47;18.70;99.90
30206;DHT22;17010;51.306;3.150;2023-07-29T09:13:14;18.60;99.90
30206;DHT22;17010;51.306;3.150;2023-07-29T09:15:40;18.60;99.90
30206;DHT22;17010;51.306;3.150;2023-07-29T09:18:14;18.70;99.90
30206;DHT22;17010;51.306;3.150;2023-07-29T09:20:41;18.80;99.90
30206;DHT22;17010;51.306;3.150;2023-07-29T09:23:09;19.00;99.90
30206;DHT22;17010;51.306;3.150;2023-07-29T09:25:38;19.20;99.90
30206;DHT22;17010;51.306;3.150;2023-07-29T09:28:12;19.70;99.90
30206;DHT22;17010;51.306;3.150;2023-07-29T09:30:39;20.30;99.90
30206;DHT22;17010;51.306;3.150;2023-07-29T09:33:06;20.70;99.90
30206;DHT22;17010;51.306;3.150;2023-07-29T09:35:34;20.90;99.90
30206;DHT22;17010;51.306;3.150;2023-07-29T09:38:05;21.10;99.90
30206;DHT22;17010;51.306;3.150;2023-07-29T09:40:37;21.40;99.90
30206;DHT22;17010;51.306;3.150;2023-07-29T09:43:04;21.60;99.90
30206;DHT22;17010;51.306;3.150;2023-07-29T09:45:34;21.80;99.90
30206;DHT22;17010;51.306;3.150;2023-07-29T09:48:01;21.80;99.90
30206;DHT22;17010;51.306;3.150;2023-07-29T09:50:28;21.70;99.90
30206;DHT22;17010;51.306;3.150;2023-07-29T09:52:56;21.50;99.90
30206;DHT22;17010;51.306;3.150;2023-07-29T09:55:25;21.20;99.90
30206;DHT22;17010;51.306;3.150;2023-07-29T09:58:00;21.00;99.90
30206;DHT22;17010;51.306;3.150;2023-07-29T10:00:31;20.80;99.90
30206;DHT22;17010;51.306;3.150;2023-07-29T10:02:58;20.70;99.90
30206;DHT22;17010;51.306;3.150;2023-07-29T10:05:28;20.80;99.90
30206;DHT22;17010;51.306;3.150;2023-07-29T10:08:00;21.00;99.90
30206;DHT22;17010;51.306;3.150;2023-07-29T10:10:35;21.10;99.90
30206;DHT22;17010;51.306;3.150;2023-07-29T10:13:04;21.20;99.90
30206;DHT22;17010;51.306;3.150;2023-07-29T10:22:13;21.70;99.90
30206;DHT22;17010;51.306;3.150;2023-07-29T10:24:39;22.20;99.90
30206;DHT22;17010;51.306;3.150;2023-07-29T10:27:07;22.60;99.90
30206;DHT22;17010;51.306;3.150;2023-07-29T10:29:38;22.90;99.90
30206;DHT22;17010;51.306;3.150;2023-07-29T10:32:06;22.90;99.90
30206;DHT22;17010;51.306;3.150;2023-07-29T10:34:34;23.00;99.90
30206;DHT22;17010;51.306;3.150;2023-07-29T10:37:02;23.00;99.90
30206;DHT22;17010;51.306;3.150;2023-07-29T10:42:38;22.80;99.90
30206;DHT22;17010;51.306;3.150;2023-07-29T10:51:29;23.60;99.90
30206;DHT22;17010;51.306;3.150;2023-07-29T10:53:57;24.00;99.90
30206;DHT22;17010;51.306;3.150;2023-07-29T10:56:50;24.40;99.90
30206;DHT22;17010;51.306;3.150;2023-07-29T11:01:56;25.70;99.90
30206;DHT22;17010;51.306;3.150;2023-07-29T11:04:23;26.40;99.90
30206;DHT22;17010;51.306;3.150;2023-07-29T11:15:26;26.80;99.90
30206;DHT22;17010;51.306;3.150;2023-07-29T11:17:59;26.50;99.90
30206;DHT22;17010;51.306;3.150;2023-07-29T11:20:30;26.30;99.90
30206;DHT22;17010;51.306;3.150;2023-07-29T11:22:57;26.40;99.90
30206;DHT22;17010;51.306;3.150;2023-07-29T11:25:25;26.40;99.90
30206;DHT22;17010;51.306;3.150;2023-07-29T11:27:53;26.80;99.90
30206;DHT22;17010;51.306;3.150;2023-07-29T11:30:21;27.10;99.90
30206;DHT22;17010;51.306;3.150;2023-07-29T11:32:50;26.90;99.90
30206;DHT22;17010;51.306;3.150;2023-07-29T11:35:17;27.10;99.90
30206;DHT22;17010;51.306;3.150;2023-07-29T11:37:48;27.60;99.90
30206;DHT22;17010;51.306;3.150;2023-07-29T11:40:15;28.30;99.90
30206;DHT22;17010;51.306;3.150;2023-07-29T11:42:42;28.80;99.90
30206;DHT22;17010;51.306;3.150;2023-07-29T11:45:09;29.30;99.90
30206;DHT22;17010;51.306;3.150;2023-07-29T11:47:35;29.20;99.90
30206;DHT22;17010;51.306;3.150;2023-07-29T11:50:04;29.30;99.90
30206;DHT22;17010;51.306;3.150;2023-07-29T11:52:32;29.10;99.90
30206;DHT22;17010;51.306;3.150;2023-07-29T11:55:00;29.00;99.90
30206;DHT22;17010;51.306;3.150;2023-07-29T11:57:28;29.40;99.90
30206;DHT22;17010;51.306;3.150;2023-07-29T11:59:55;29.90;99.90
30206;DHT22;17010;51.306;3.150;2023-07-29T12:02:21;30.00;99.90
30206;DHT22;17010;51.306;3.150;2023-07-29T12:04:48;29.60;99.90
30206;DHT22;17010;51.306;3.150;2023-07-29T12:07:16;29.10;99.90
30206;DHT22;17010;51.306;3.150;2023-07-29T12:09:43;28.70;99.90
30206;DHT22;17010;51.306;3.150;2023-07-29T12:12:10;28.20;99.90
30206;DHT22;17010;51.306;3.150;2023-07-29T12:14:36;27.70;99.90
30206;DHT22;17010;51.306;3.150;2023-07-29T12:17:04;27.40;99.90
30206;DHT22;17010;51.306;3.150;2023-07-29T12:19:35;27.10;99.90
30206;DHT22;17010;51.306;3.150;2023-07-29T12:22:09;26.70;99.90
30206;DHT22;17010;51.306;3.150;2023-07-29T12:24:42;26.30;99.90
30206;DHT22;17010;51.306;3.150;2023-07-29T12:27:12;26.00;99.90
30206;DHT22;17010;51.306;3.150;2023-07-29T12:29:42;25.80;99.90
30206;DHT22;17010;51.306;3.150;2023-07-29T12:32:09;25.40;99.90
30206;DHT22;17010;51.306;3.150;2023-07-29T12:34:38;25.40;99.90
30206;DHT22;17010;51.306;3.150;2023-07-29T12:37:06;25.50;99.90
30206;DHT22;17010;51.306;3.150;2023-07-29T12:39:34;25.70;99.90
30206;DHT22;17010;51.306;3.150;2023-07-29T12:42:01;26.00;99.90
30206;DHT22;17010;51.306;3.150;2023-07-29T12:44:40;26.20;99.90
30206;DHT22;17010;51.306;3.150;2023-07-29T12:47:09;26.40;99.90
30206;DHT22;17010;51.306;3.150;2023-07-29T12:49:37;26.10;99.90
30206;DHT22;17010;51.306;3.150;2023-07-29T12:52:06;25.80;99.90
30206;DHT22;17010;51.306;3.150;2023-07-29T12:54:35;25.70;99.90
30206;DHT22;17010;51.306;3.150;2023-07-29T12:57:01;25.50;99.90
30206;DHT22;17010;51.306;3.150;2023-07-29T12:59:28;25.50;99.90
30206;DHT22;17010;51.306;3.150;2023-07-29T13:01:54;25.80;99.90
30206;DHT22;17010;51.306;3.150;2023-07-29T13:04:21;26.40;99.90
30206;DHT22;17010;51.306;3.150;2023-07-29T13:06:48;27.00;99.90
30206;DHT22;17010;51.306;3.150;2023-07-29T13:09:15;27.30;99.90
30206;DHT22;17010;51.306;3.150;2023-07-29T13:11:42;27.40;99.90
30206;DHT22;17010;51.306;3.150;2023-07-29T13:14:08;27.30;99.90
30206;DHT22;17010;51.306;3.150;2023-07-29T13:16:34;26.90;99.90
30206;DHT22;17010;51.306;3.150;2023-07-29T13:19:01;26.60;99.90
30206;DHT22;17010;51.306;3.150;2023-07-29T13:21:27;26.20;99.90
30206;DHT22;17010;51.306;3.150;2023-07-29T13:23:54;25.90;99.90
30206;DHT22;17010;51.306;3.150;2023-07-29T13:26:20;25.50;99.90
30206;DHT22;17010;51.306;3.150;2023-07-29T13:28:47;25.10;99.90
30206;DHT22;17010;51.306;3.150;2023-07-29T13:31:14;24.80;99.90
30206;DHT22;17010;51.306;3.150;2023-07-29T13:33:41;24.80;99.90
30206;DHT22;17010;51.306;3.150;2023-07-29T13:36:07;24.90;99.90
30206;DHT22;17010;51.306;3.150;2023-07-29T13:38:38;25.30;99.90
30206;DHT22;17010;51.306;3.150;2023-07-29T13:41:04;25.60;99.90
30206;DHT22;17010;51.306;3.150;2023-07-29T13:43:31;25.70;99.90
30206;DHT22;17010;51.306;3.150;2023-07-29T13:45:57;25.70;99.90
30206;DHT22;17010;51.306;3.150;2023-07-29T13:48:23;25.70;99.90
30206;DHT22;17010;51.306;3.150;2023-07-29T13:50:49;25.60;99.90
30206;DHT22;17010;51.306;3.150;2023-07-29T13:53:18;25.70;99.90
30206;DHT22;17010;51.306;3.150;2023-07-29T13:55:44;25.80;99.90
30206;DHT22;17010;51.306;3.150;2023-07-29T13:58:10;25.90;99.90
30206;DHT22;17010;51.306;3.150;2023-07-29T14:00:37;25.80;99.90
30206;DHT22;17010;51.306;3.150;2023-07-29T14:03:04;25.40;99.90
30206;DHT22;17010;51.306;3.150;2023-07-29T14:05:30;25.20;99.90
30206;DHT22;17010;51.306;3.150;2023-07-29T14:07:56;25.00;99.90
30206;DHT22;17010;51.306;3.150;2023-07-29T14:10:23;24.90;99.90
30206;DHT22;17010;51.306;3.150;2023-07-29T14:12:50;24.70;99.90
30206;DHT22;17010;51.306;3.150;2023-07-29T14:15:17;24.60;99.90
30206;DHT22;17010;51.306;3.150;2023-07-29T14:17:45;24.40;99.90
30206;DHT22;17010;51.306;3.150;2023-07-29T14:20:14;24.40;99.90
30206;DHT22;17010;51.306;3.150;2023-07-29T14:22:42;24.10;99.90
30206;DHT22;17010;51.306;3.150;2023-07-29T14:25:08;23.90;99.90
30206;DHT22;17010;51.306;3.150;2023-07-29T14:27:38;23.80;99.90
30206;DHT22;17010;51.306;3.150;2023-07-29T14:30:16;23.70;99.90
30206;DHT22;17010;51.306;3.150;2023-07-29T14:32:44;23.60;99.90
30206;DHT22;17010;51.306;3.150;2023-07-29T14:35:11;23.50;99.90
30206;DHT22;17010;51.306;3.150;2023-07-29T14:37:37;23.50;99.90
30206;DHT22;17010;51.306;3.150;2023-07-29T14:40:06;23.40;99.90
30206;DHT22;17010;51.306;3.150;2023-07-29T14:42:33;23.40;99.90
30206;DHT22;17010;51.306;3.150;2023-07-29T14:44:59;23.40;99.90
30206;DHT22;17010;51.306;3.150;2023-07-29T14:47:27;23.50;99.90
30206;DHT22;17010;51.306;3.150;2023-07-29T14:50:01;23.40;99.90
30206;DHT22;17010;51.306;3.150;2023-07-29T14:52:27;23.40;99.90
30206;DHT22;17010;51.306;3.150;2023-07-29T14:54:56;23.30;99.90
30206;DHT22;17010;51.306;3.150;2023-07-29T14:57:23;23.30;99.90
30206;DHT22;17010;51.306;3.150;2023-07-29T14:59:52;23.20;99.90
30206;DHT22;17010;51.306;3.150;2023-07-29T15:02:18;23.20;99.90
30206;DHT22;17010;51.306;3.150;2023-07-29T15:04:44;23.00;99.90
30206;DHT22;17010;51.306;3.150;2023-07-29T15:07:13;22.90;99.90
30206;DHT22;17010;51.306;3.150;2023-07-29T15:09:39;22.90;99.90
30206;DHT22;17010;51.306;3.150;2023-07-29T15:12:06;22.80;99.90
30206;DHT22;17010;51.306;3.150;2023-07-29T15:14:32;22.80;99.90
30206;DHT22;17010;51.306;3.150;2023-07-29T15:16:59;22.80;99.90
30206;DHT22;17010;51.306;3.150;2023-07-29T15:19:25;22.70;99.90
30206;DHT22;17010;51.306;3.150;2023-07-29T15:21:52;22.70;99.90
30206;DHT22;17010;51.306;3.150;2023-07-29T15:24:21;22.70;99.90
30206;DHT22;17010;51.306;3.150;2023-07-29T15:26:47;22.70;99.90
30206;DHT22;17010;51.306;3.150;2023-07-29T15:29:13;22.70;99.90
30206;DHT22;17010;51.306;3.150;2023-07-29T15:31:41;22.70;99.90
30206;DHT22;17010;51.306;3.150;2023-07-29T15:34:07;22.70;99.90
30206;DHT22;17010;51.306;3.150;2023-07-29T15:36:34;22.70;99.90
30206;DHT22;17010;51.306;3.150;2023-07-29T15:39:00;22.70;99.90
30206;DHT22;17010;51.306;3.150;2023-07-29T15:41:26;22.80;99.90
30206;DHT22;17010;51.306;3.150;2023-07-29T15:43:53;22.80;99.90
30206;DHT22;17010;51.306;3.150;2023-07-29T15:46:20;22.70;99.90
30206;DHT22;17010;51.306;3.150;2023-07-29T15:48:46;22.60;99.90
30206;DHT22;17010;51.306;3.150;2023-07-29T15:51:14;22.50;99.90
30206;DHT22;17010;51.306;3.150;2023-07-29T15:53:41;22.50;99.90
30206;DHT22;17010;51.306;3.150;2023-07-29T15:56:11;22.50;99.90
30206;DHT22;17010;51.306;3.150;2023-07-29T15:58:41;22.50;99.90
30206;DHT22;17010;51.306;3.150;2023-07-29T16:01:07;22.40;99.90
30206;DHT22;17010;51.306;3.150;2023-07-29T16:03:33;22.40;99.90
30206;DHT22;17010;51.306;3.150;2023-07-29T16:05:59;22.20;99.90
30206;DHT22;17010;51.306;3.150;2023-07-29T16:08:31;22.20;99.90
30206;DHT22;17010;51.306;3.150;2023-07-29T16:10:59;22.30;99.90
30206;DHT22;17010;51.306;3.150;2023-07-29T16:13:26;22.40;99.90
30206;DHT22;17010;51.306;3.150;2023-07-29T16:15:52;22.30;99.90
30206;DHT22;17010;51.306;3.150;2023-07-29T16:18:18;22.30;99.90
30206;DHT22;17010;51.306;3.150;2023-07-29T16:20:47;22.30;99.90